Time;durP1;ratioP1;P1;durP2;ratioP2;P2;SDS_P1;SDS_P2;PMS_P1;PMS_P2;Temp;Humidity;BMP_temperature;BMP_pressure;BME280_temperature;BME280_humidity;BME280_pressure;Samples;Min_cycle;Max_cycle;Signal;HPM_P1;HPM_P2
2023/05/21 00:00:21;;;;;;;6.95;3.60;;;;;;;;;;5154114;27;20066;-76
2023/05/21 00:02:47;;;;;;;6.75;3.55;;;;;;;;;;5135367;27;20039;-76
2023/05/21 00:05:14;;;;;;;5.50;3.50;;;;;;;;;;5153494;27;20458;-76
2023/05/21 00:07:40;;;;;;;6.32;3.42;;;;;;;;;;5134966;27;20058;-75
2023/05/21 00:10:06;;;;;;;7.35;3.90;;;;;;;;;;5153571;27;20083;-77
2023/05/21 00:12:32;;;;;;;5.43;3.65;;;;;;;;;;5134728;27;20041;-76
2023/05/21 00:15:00;;;;;;;6.70;3.47;;;;;;;;;;5156968;27;20071;-79
2023/05/21 00:17:27;;;;;;;5.68;3.50;;;;;;;;;;5138775;27;20050;-79
2023/05/21 00:19:53;;;;;;;6.25;3.83;;;;;;;;;;5157169;27;20042;-79
2023/05/21 00:22:19;;;;;;;5.03;3.70;;;;;;;;;;5138813;27;20042;-79
2023/05/21 00:24:45;;;;;;;5.30;3.60;;;;;;;;;;5138706;27;20532;-79
2023/05/21 00:27:12;;;;;;;7.30;3.60;;;;;;;;;;5138611;27;20045;-80
2023/05/21 00:29:38;;;;;;;6.63;3.40;;;;;;;;;;5127977;27;20511;-79
2023/05/21 00:32:04;;;;;;;5.82;3.90;;;;;;;;;;5135005;27;20043;-79
2023/05/21 00:34:30;;;;;;;5.07;3.70;;;;;;;;;;5138618;27;20035;-79
2023/05/21 00:36:57;;;;;;;7.10;4.18;;;;;;;;;;5138299;27;20050;-79
2023/05/21 00:39:23;;;;;;;8.50;4.07;;;;;;;;;;5139003;27;20042;-76
2023/05/21 00:41:49;;;;;;;6.65;4.20;;;;;;;;;;5138167;27;20061;-76
2023/05/21 00:44:18;;;;;;;7.90;4.38;;;;;;;;;;5138267;27;20046;-76
2023/05/21 00:46:47;;;;;;;9.02;4.13;;;;;;;;;;5138075;27;20053;-76
2023/05/21 00:49:14;;;;;;;6.95;4.20;;;;;;;;;;5157097;27;20471;-76
2023/05/21 00:51:40;;;;;;;6.20;4.25;;;;;;;;;;5121311;27;20402;-76
2023/05/21 00:54:07;;;;;;;6.50;3.80;;;;;;;;;;5138572;27;20403;-76
2023/05/21 00:56:33;;;;;;;7.78;3.92;;;;;;;;;;5138010;27;20121;-75
2023/05/21 00:58:59;;;;;;;8.10;4.00;;;;;;;;;;5138045;27;20042;-79
2023/05/21 01:01:25;;;;;;;7.22;4.90;;;;;;;;;;5137924;27;20087;-79
2023/05/21 01:03:56;;;;;;;8.88;4.78;;;;;;;;;;5137742;27;20118;-79
2023/05/21 01:06:22;;;;;;;9.50;4.45;;;;;;;;;;5120626;27;20042;-76
2023/05/21 01:08:49;;;;;;;9.50;3.97;;;;;;;;;;5137828;27;20035;-76
2023/05/21 01:11:16;;;;;;;6.70;4.50;;;;;;;;;;5138541;27;20454;-75
2023/05/21 01:13:43;;;;;;;7.95;5.10;;;;;;;;;;5137984;27;20478;-76
2023/05/21 01:16:12;;;;;;;7.88;4.60;;;;;;;;;;5156284;27;20039;-76
2023/05/21 01:18:38;;;;;;;7.63;4.18;;;;;;;;;;5156200;27;20037;-76
2023/05/21 01:21:06;;;;;;;8.55;4.60;;;;;;;;;;5156651;27;20038;-76
2023/05/21 01:23:33;;;;;;;6.30;4.60;;;;;;;;;;5120850;27;20047;-76
2023/05/21 01:25:59;;;;;;;8.82;4.68;;;;;;;;;;5155373;27;20045;-76
2023/05/21 01:28:25;;;;;;;7.40;4.78;;;;;;;;;;5137584;27;20035;-76
2023/05/21 01:30:51;;;;;;;6.55;4.25;;;;;;;;;;5156188;27;20038;-78
2023/05/21 01:33:31;;;;;;;7.43;4.22;;;;;;;;;;5156501;27;20429;-79
2023/05/21 01:36:04;;;;;;;8.15;4.50;;;;;;;;;;5123505;27;20031;-79
2023/05/21 01:38:45;;;;;;;7.03;4.63;;;;;;;;;;5137366;27;20088;-79
2023/05/21 01:41:12;;;;;;;8.98;4.47;;;;;;;;;;5125185;27;20502;-76
2023/05/21 01:43:39;;;;;;;7.35;4.40;;;;;;;;;;5106805;27;20043;-77
2023/05/21 01:46:07;;;;;;;7.15;4.50;;;;;;;;;;5137231;27;20038;-76
2023/05/21 01:48:34;;;;;;;10.63;5.50;;;;;;;;;;5120345;27;20039;-75
2023/05/21 01:51:01;;;;;;;6.72;4.45;;;;;;;;;;5120039;27;20042;-76
2023/05/21 01:53:27;;;;;;;8.45;4.55;;;;;;;;;;5136917;27;20034;-79
2023/05/21 01:55:54;;;;;;;8.32;4.80;;;;;;;;;;5155358;27;20037;-79
2023/05/21 01:58:26;;;;;;;6.78;4.50;;;;;;;;;;5119867;27;20043;-79
2023/05/21 02:00:52;;;;;;;9.73;4.50;;;;;;;;;;5136674;27;20043;-79
2023/05/21 02:03:20;;;;;;;8.73;4.75;;;;;;;;;;5124399;27;20045;-78
2023/05/21 02:05:46;;;;;;;8.68;5.43;;;;;;;;;;5120426;27;20306;-78
2023/05/21 02:08:13;;;;;;;8.00;5.20;;;;;;;;;;5126039;27;20043;-78
2023/05/21 02:10:40;;;;;;;10.20;5.13;;;;;;;;;;5136636;27;20051;-78
2023/05/21 02:13:06;;;;;;;8.73;4.80;;;;;;;;;;5136407;27;20043;-77
2023/05/21 02:15:35;;;;;;;9.38;4.90;;;;;;;;;;5134185;27;20122;-78
2023/05/21 02:18:02;;;;;;;7.40;4.70;;;;;;;;;;5136368;27;20042;-78
2023/05/21 02:20:28;;;;;;;8.05;5.00;;;;;;;;;;5136267;27;20050;-75
2023/05/21 02:22:54;;;;;;;9.80;5.15;;;;;;;;;;5126950;27;20043;-76
2023/05/21 02:25:20;;;;;;;9.27;5.10;;;;;;;;;;5133524;27;20447;-74
2023/05/21 02:27:46;;;;;;;8.00;5.28;;;;;;;;;;5107880;27;20057;-78
2023/05/21 02:30:13;;;;;;;8.75;5.22;;;;;;;;;;5119144;27;20087;-79
2023/05/21 02:32:43;;;;;;;7.53;4.90;;;;;;;;;;5150165;27;20039;-78
2023/05/21 02:35:10;;;;;;;9.23;5.50;;;;;;;;;;5134816;27;20042;-78
2023/05/21 02:37:36;;;;;;;8.25;5.65;;;;;;;;;;5119025;27;20038;-79
2023/05/21 02:40:04;;;;;;;8.85;5.38;;;;;;;;;;5154470;27;20042;-78
2023/05/21 02:42:31;;;;;;;9.43;5.60;;;;;;;;;;5136503;27;20034;-78
2023/05/21 02:44:57;;;;;;;11.65;5.88;;;;;;;;;;5136036;27;20498;-75
2023/05/21 02:47:24;;;;;;;6.97;5.25;;;;;;;;;;5115248;27;20082;-75
2023/05/21 02:49:51;;;;;;;10.60;5.50;;;;;;;;;;5110623;27;20042;-75
2023/05/21 02:52:17;;;;;;;10.23;5.43;;;;;;;;;;5136326;27;20087;-76
2023/05/21 02:54:44;;;;;;;8.52;5.70;;;;;;;;;;5144418;27;20046;-76
2023/05/21 02:57:10;;;;;;;8.90;5.43;;;;;;;;;;5131304;27;20051;-76
2023/05/21 02:59:36;;;;;;;7.25;4.65;;;;;;;;;;5118826;27;20123;-76
2023/05/21 03:02:02;;;;;;;8.48;5.28;;;;;;;;;;5135758;27;20122;-77
2023/05/21 03:04:28;;;;;;;10.30;5.60;;;;;;;;;;5154288;27;20054;-76
2023/05/21 03:06:55;;;;;;;9.48;5.63;;;;;;;;;;5136184;27;20126;-76
2023/05/21 03:09:21;;;;;;;10.35;5.10;;;;;;;;;;5136448;27;20487;-76
2023/05/21 03:11:48;;;;;;;9.23;5.05;;;;;;;;;;5155081;27;20035;-77
2023/05/21 03:14:15;;;;;;;12.00;5.85;;;;;;;;;;5118825;27;20042;-78
2023/05/21 03:16:42;;;;;;;9.18;5.72;;;;;;;;;;5119968;27;20113;-77
2023/05/21 03:19:08;;;;;;;10.73;5.72;;;;;;;;;;5136485;27;20394;-78
2023/05/21 03:21:35;;;;;;;8.52;5.20;;;;;;;;;;5154803;27;20034;-78
2023/05/21 03:24:05;;;;;;;9.40;5.88;;;;;;;;;;5136257;27;20427;-77
2023/05/21 03:26:31;;;;;;;10.90;6.07;;;;;;;;;;5154439;27;20049;-76
2023/05/21 03:28:57;;;;;;;9.13;5.57;;;;;;;;;;5118258;27;20067;-76
2023/05/21 03:31:24;;;;;;;8.95;5.57;;;;;;;;;;5135538;27;20089;-76
2023/05/21 03:33:51;;;;;;;8.63;5.68;;;;;;;;;;5125884;28;20043;-75
2023/05/21 03:36:17;;;;;;;9.32;5.60;;;;;;;;;;5134499;27;20031;-78
2023/05/21 03:38:43;;;;;;;8.43;6.15;;;;;;;;;;5135563;27;20039;-76
2023/05/21 03:41:10;;;;;;;10.20;6.57;;;;;;;;;;5154071;27;20053;-78
2023/05/21 03:43:36;;;;;;;11.45;6.25;;;;;;;;;;5135695;27;20126;-76
2023/05/21 03:46:02;;;;;;;10.98;5.65;;;;;;;;;;5153686;27;20031;-78
2023/05/21 03:48:28;;;;;;;11.57;6.38;;;;;;;;;;5154717;27;20046;-77
2023/05/21 03:50:54;;;;;;;9.60;5.90;;;;;;;;;;5149005;27;20059;-78
2023/05/21 03:53:21;;;;;;;10.23;6.93;;;;;;;;;;5152056;27;20046;-78
2023/05/21 03:55:53;;;;;;;12.32;5.85;;;;;;;;;;5139288;27;20070;-76
2023/05/21 03:58:20;;;;;;;9.27;6.10;;;;;;;;;;5157856;27;20034;-76
2023/05/21 04:00:47;;;;;;;8.85;5.57;;;;;;;;;;5124685;27;20034;-77
2023/05/21 04:03:13;;;;;;;7.93;5.88;;;;;;;;;;5155629;27;20066;-78
2023/05/21 04:05:40;;;;;;;9.77;5.38;;;;;;;;;;5117468;27;20112;-78
2023/05/21 04:08:06;;;;;;;10.63;6.75;;;;;;;;;;5128112;27;20078;-78
2023/05/21 04:10:32;;;;;;;9.75;6.07;;;;;;;;;;5111774;27;20031;-78
2023/05/21 04:12:58;;;;;;;9.55;6.00;;;;;;;;;;5157670;27;20115;-78
2023/05/21 04:15:24;;;;;;;9.50;6.05;;;;;;;;;;5121775;27;20551;-78
2023/05/21 04:17:51;;;;;;;9.43;6.32;;;;;;;;;;5134635;27;20415;-78
2023/05/21 04:20:17;;;;;;;11.80;7.10;;;;;;;;;;5138701;27;20042;-76
2023/05/21 04:22:43;;;;;;;9.35;6.10;;;;;;;;;;5117091;27;20074;-74
2023/05/21 04:25:09;;;;;;;11.73;5.90;;;;;;;;;;5150668;27;20499;-76
2023/05/21 04:27:36;;;;;;;13.45;6.63;;;;;;;;;;5149492;27;20041;-76
2023/05/21 04:30:05;;;;;;;10.63;6.50;;;;;;;;;;5138890;27;20387;-76
2023/05/21 04:32:33;;;;;;;9.77;6.78;;;;;;;;;;5133970;27;20122;-76
2023/05/21 04:35:00;;;;;;;11.20;6.68;;;;;;;;;;5152935;27;20506;-75
2023/05/21 04:37:33;;;;;;;9.50;6.15;;;;;;;;;;5128950;27;20039;-75
2023/05/21 04:40:00;;;;;;;10.55;6.47;;;;;;;;;;5125167;27;20042;-76
2023/05/21 04:42:26;;;;;;;10.10;6.85;;;;;;;;;;5152375;27;20494;-78
2023/05/21 04:44:54;;;;;;;11.30;7.30;;;;;;;;;;5156920;27;20030;-78
2023/05/21 04:47:20;;;;;;;10.82;7.00;;;;;;;;;;5156680;27;20047;-76
2023/05/21 04:49:46;;;;;;;12.60;7.10;;;;;;;;;;5107428;27;20077;-78
2023/05/21 04:52:12;;;;;;;10.43;7.32;;;;;;;;;;5155958;27;20031;-79
2023/05/21 04:54:40;;;;;;;10.05;6.97;;;;;;;;;;5156692;27;20066;-74
2023/05/21 04:57:06;;;;;;;9.80;6.53;;;;;;;;;;5156567;27;20038;-75
2023/05/21 04:59:33;;;;;;;13.10;7.60;;;;;;;;;;5156738;27;20486;-77
2023/05/21 05:01:59;;;;;;;10.90;6.85;;;;;;;;;;5138199;27;20490;-75
2023/05/21 05:04:25;;;;;;;10.60;6.00;;;;;;;;;;5134310;27;20142;-76
2023/05/21 05:06:51;;;;;;;11.52;6.60;;;;;;;;;;5117415;27;20051;-76
2023/05/21 05:09:18;;;;;;;11.90;6.95;;;;;;;;;;5113723;28;20063;-75
2023/05/21 05:11:44;;;;;;;13.68;6.93;;;;;;;;;;5126345;27;20050;-75
2023/05/21 05:14:10;;;;;;;11.48;7.00;;;;;;;;;;5133978;27;20053;-75
2023/05/21 05:16:36;;;;;;;10.77;6.65;;;;;;;;;;5134542;27;20039;-76
2023/05/21 05:19:03;;;;;;;12.77;7.15;;;;;;;;;;5131993;27;20039;-76
2023/05/21 05:21:29;;;;;;;13.05;6.97;;;;;;;;;;5113870;28;20118;-75
2023/05/21 05:23:55;;;;;;;11.15;6.47;;;;;;;;;;5128775;27;20049;-75
2023/05/21 05:26:21;;;;;;;11.20;6.40;;;;;;;;;;5116654;27;20121;-78
2023/05/21 05:28:47;;;;;;;9.30;6.20;;;;;;;;;;5135615;27;20502;-78
2023/05/21 05:31:14;;;;;;;12.23;6.95;;;;;;;;;;5134921;27;20123;-79
2023/05/21 05:33:40;;;;;;;10.15;6.85;;;;;;;;;;5117081;27;20047;-77
2023/05/21 05:36:06;;;;;;;12.63;6.38;;;;;;;;;;5133621;27;20114;-77
2023/05/21 05:38:33;;;;;;;12.07;6.93;;;;;;;;;;5133494;27;20092;-78
2023/05/21 05:40:59;;;;;;;12.43;6.65;;;;;;;;;;5133646;27;20045;-77
2023/05/21 05:43:25;;;;;;;12.02;6.75;;;;;;;;;;5133930;27;20050;-78
2023/05/21 05:45:52;;;;;;;12.50;6.90;;;;;;;;;;5133929;27;20043;-77
2023/05/21 05:48:18;;;;;;;13.38;7.22;;;;;;;;;;5115213;27;20039;-77
2023/05/21 05:50:45;;;;;;;10.98;6.80;;;;;;;;;;5120988;27;20468;-75
2023/05/21 05:53:12;;;;;;;15.18;7.13;;;;;;;;;;5133479;27;20053;-76
2023/05/21 05:55:38;;;;;;;10.98;6.05;;;;;;;;;;5128045;27;20476;-75
2023/05/21 05:58:04;;;;;;;9.98;6.45;;;;;;;;;;5126591;27;20031;-74
2023/05/21 06:00:31;;;;;;;11.35;6.70;;;;;;;;;;5134867;27;20491;-76
2023/05/21 06:02:57;;;;;;;13.23;6.95;;;;;;;;;;5133811;27;20043;-76
2023/05/21 06:05:23;;;;;;;11.65;6.57;;;;;;;;;;5148425;27;20062;-76
2023/05/21 06:07:49;;;;;;;11.57;6.25;;;;;;;;;;5136741;27;20050;-75
2023/05/21 06:10:15;;;;;;;9.55;5.60;;;;;;;;;;5155454;27;20031;-77
2023/05/21 06:12:41;;;;;;;12.23;6.70;;;;;;;;;;5104720;27;20037;-78
2023/05/21 06:15:08;;;;;;;12.63;6.97;;;;;;;;;;5136843;27;20030;-78
2023/05/21 06:17:34;;;;;;;11.15;6.13;;;;;;;;;;5136390;27;20042;-78
2023/05/21 06:20:00;;;;;;;10.18;6.10;;;;;;;;;;5099330;27;20081;-79
2023/05/21 06:22:26;;;;;;;11.43;6.53;;;;;;;;;;5115359;27;20054;-78
2023/05/21 06:24:52;;;;;;;12.23;5.88;;;;;;;;;;5155374;27;20058;-79
2023/05/21 06:27:18;;;;;;;11.10;5.60;;;;;;;;;;5135900;27;20050;-78
2023/05/21 06:29:44;;;;;;;9.23;5.63;;;;;;;;;;5105579;27;20062;-78
2023/05/21 06:32:11;;;;;;;11.70;6.07;;;;;;;;;;5154927;27;20122;-78
2023/05/21 06:34:37;;;;;;;10.85;6.50;;;;;;;;;;5154795;27;20478;-78
2023/05/21 06:37:03;;;;;;;11.80;6.30;;;;;;;;;;5136503;27;20034;-78
2023/05/21 06:39:29;;;;;;;8.65;5.13;;;;;;;;;;5136046;27;20042;-78
2023/05/21 06:41:55;;;;;;;10.82;5.22;;;;;;;;;;5136063;27;20043;-77
2023/05/21 06:44:21;;;;;;;11.85;5.65;;;;;;;;;;5115193;27;20039;-78
2023/05/21 06:46:47;;;;;;;10.98;4.97;;;;;;;;;;5151237;27;20566;-78
2023/05/21 06:49:13;;;;;;;9.50;5.40;;;;;;;;;;5136553;27;20503;-78
2023/05/21 06:51:40;;;;;;;8.88;5.22;;;;;;;;;;5136191;27;20411;-78
2023/05/21 06:54:06;;;;;;;10.88;5.40;;;;;;;;;;5112349;27;20080;-77
2023/05/21 06:56:32;;;;;;;11.45;6.25;;;;;;;;;;5128667;27;20043;-79
2023/05/21 06:58:58;;;;;;;9.85;5.25;;;;;;;;;;5131090;27;20088;-77
2023/05/21 07:01:24;;;;;;;8.43;4.80;;;;;;;;;;5145486;27;20101;-78
2023/05/21 07:03:50;;;;;;;9.07;4.95;;;;;;;;;;5135891;27;20095;-78
2023/05/21 07:06:17;;;;;;;8.68;4.93;;;;;;;;;;5136079;27;20487;-77
2023/05/21 07:08:43;;;;;;;11.00;5.70;;;;;;;;;;5135657;27;20049;-78
2023/05/21 07:11:09;;;;;;;12.20;5.10;;;;;;;;;;5154413;27;20042;-76
2023/05/21 07:13:35;;;;;;;9.23;5.35;;;;;;;;;;5154129;27;20159;-76
2023/05/21 07:16:02;;;;;;;10.57;5.38;;;;;;;;;;5154124;27;20436;-75
2023/05/21 07:18:28;;;;;;;9.75;4.95;;;;;;;;;;5135819;27;20064;-77
2023/05/21 07:20:54;;;;;;;7.60;4.55;;;;;;;;;;5118655;27;20047;-78
2023/05/21 07:23:20;;;;;;;8.15;4.60;;;;;;;;;;5119385;27;20043;-77
2023/05/21 07:25:46;;;;;;;8.52;4.80;;;;;;;;;;5139826;27;20038;-77
2023/05/21 07:28:12;;;;;;;9.07;5.05;;;;;;;;;;5140329;27;20039;-77
2023/05/21 07:30:39;;;;;;;8.70;4.60;;;;;;;;;;5139778;27;20091;-77
2023/05/21 07:33:05;;;;;;;9.15;5.28;;;;;;;;;;5125336;27;20099;-76
2023/05/21 07:35:31;;;;;;;7.68;4.40;;;;;;;;;;5139946;27;20051;-77
2023/05/21 07:37:57;;;;;;;10.38;5.28;;;;;;;;;;5123180;27;20467;-78
2023/05/21 07:40:23;;;;;;;7.80;4.68;;;;;;;;;;5140266;27;20049;-78
2023/05/21 07:42:49;;;;;;;8.20;4.85;;;;;;;;;;5140572;27;20403;-78
2023/05/21 07:45:15;;;;;;;11.10;5.03;;;;;;;;;;5140201;27;20045;-77
2023/05/21 07:47:42;;;;;;;9.90;4.70;;;;;;;;;;5139697;27;20042;-77
2023/05/21 07:50:08;;;;;;;14.13;5.43;;;;;;;;;;5139974;27;20047;-78
2023/05/21 07:52:34;;;;;;;10.63;5.20;;;;;;;;;;5139267;27;20095;-78
2023/05/21 07:55:01;;;;;;;9.18;4.65;;;;;;;;;;5122203;27;20472;-79
2023/05/21 07:57:27;;;;;;;8.23;4.57;;;;;;;;;;5143994;27;20475;-77
2023/05/21 07:59:54;;;;;;;9.57;4.78;;;;;;;;;;5139313;27;20046;-77
2023/05/21 08:02:20;;;;;;;8.45;4.35;;;;;;;;;;5122371;27;20491;-78
2023/05/21 08:04:46;;;;;;;6.55;3.90;;;;;;;;;;5110908;27;20055;-78
2023/05/21 08:07:15;;;;;;;7.20;4.75;;;;;;;;;;5118721;27;20057;-78
2023/05/21 08:09:41;;;;;;;7.20;4.47;;;;;;;;;;5121750;27;20039;-78
2023/05/21 08:12:07;;;;;;;8.02;4.32;;;;;;;;;;5139237;27;20459;-78
2023/05/21 08:14:33;;;;;;;8.65;5.00;;;;;;;;;;5138706;27;20049;-77
2023/05/21 08:17:00;;;;;;;8.25;4.07;;;;;;;;;;5139190;27;20042;-79
2023/05/21 08:19:26;;;;;;;7.72;4.45;;;;;;;;;;5157832;27;20053;-77
2023/05/21 08:21:52;;;;;;;8.57;4.47;;;;;;;;;;5157556;27;20038;-78
2023/05/21 08:24:18;;;;;;;7.25;4.15;;;;;;;;;;5157206;27;20056;-77
2023/05/21 08:26:46;;;;;;;7.85;4.30;;;;;;;;;;5157015;27;20038;-79
2023/05/21 08:29:12;;;;;;;9.20;4.82;;;;;;;;;;5138740;27;20451;-80
2023/05/21 08:31:39;;;;;;;5.95;4.28;;;;;;;;;;5138704;27;20045;-79
2023/05/21 08:34:05;;;;;;;7.38;4.30;;;;;;;;;;5138422;27;20038;-78
2023/05/21 08:36:31;;;;;;;10.25;5.20;;;;;;;;;;5138357;27;20034;-79
2023/05/21 08:38:57;;;;;;;7.00;4.35;;;;;;;;;;5138854;27;20039;-79
2023/05/21 08:41:24;;;;;;;6.18;4.63;;;;;;;;;;5139347;27;20388;-78
2023/05/21 08:43:55;;;;;;;7.43;4.35;;;;;;;;;;5157422;27;20033;-80
2023/05/21 08:46:25;;;;;;;9.50;4.80;;;;;;;;;;5139248;27;20479;-77
2023/05/21 08:48:53;;;;;;;8.23;4.20;;;;;;;;;;5121284;27;20034;-79
2023/05/21 08:51:21;;;;;;;6.03;4.63;;;;;;;;;;5139812;27;20043;-81
2023/05/21 08:53:48;;;;;;;7.97;5.05;;;;;;;;;;5138810;27;20034;-81
2023/05/21 08:56:15;;;;;;;7.45;5.40;;;;;;;;;;5121759;27;20504;-80
2023/05/21 08:58:42;;;;;;;6.78;4.93;;;;;;;;;;5103884;27;20046;-79
2023/05/21 09:01:09;;;;;;;6.53;4.90;;;;;;;;;;5127338;27;20050;-80
2023/05/21 09:03:38;;;;;;;8.57;5.28;;;;;;;;;;5137791;27;20077;-82
2023/05/21 09:06:04;;;;;;;7.47;5.35;;;;;;;;;;5125838;27;20514;-76
2023/05/21 09:08:31;;;;;;;8.45;5.05;;;;;;;;;;5124648;27;20050;-79
2023/05/21 09:10:57;;;;;;;7.53;5.00;;;;;;;;;;5136349;27;20023;-78
2023/05/21 09:13:24;;;;;;;8.63;5.63;;;;;;;;;;5101097;27;20045;-79
2023/05/21 09:15:50;;;;;;;9.02;5.80;;;;;;;;;;5115011;27;20073;-80
2023/05/21 09:18:16;;;;;;;8.85;5.43;;;;;;;;;;5128016;27;20124;-78
2023/05/21 09:20:45;;;;;;;7.15;5.25;;;;;;;;;;5138150;27;20085;-76
2023/05/21 09:23:15;;;;;;;9.70;5.40;;;;;;;;;;5138978;27;20580;-77
2023/05/21 09:25:44;;;;;;;8.02;5.55;;;;;;;;;;5137589;27;20049;-79
2023/05/21 09:28:11;;;;;;;9.60;5.72;;;;;;;;;;5138203;27;20051;-79
2023/05/21 09:30:37;;;;;;;8.00;5.22;;;;;;;;;;5156587;27;20039;-75
2023/05/21 09:33:03;;;;;;;9.02;5.72;;;;;;;;;;5141861;27;20038;-77
2023/05/21 09:35:29;;;;;;;8.02;5.50;;;;;;;;;;5126071;27;20035;-78
2023/05/21 09:37:56;;;;;;;10.10;5.57;;;;;;;;;;5100365;27;20078;-78
2023/05/21 09:40:22;;;;;;;8.13;5.38;;;;;;;;;;5127827;27;20047;-80
2023/05/21 09:42:50;;;;;;;7.55;5.45;;;;;;;;;;5156236;27;20501;-77
2023/05/21 09:45:23;;;;;;;8.43;5.32;;;;;;;;;;5156146;27;20039;-75
2023/05/21 09:47:49;;;;;;;9.65;5.40;;;;;;;;;;5136174;27;20082;-76
2023/05/21 09:50:19;;;;;;;8.60;5.00;;;;;;;;;;5155899;27;20038;-76
2023/05/21 09:52:46;;;;;;;7.65;4.75;;;;;;;;;;5110242;27;20053;-77
2023/05/21 09:55:13;;;;;;;8.18;5.40;;;;;;;;;;5116405;27;20074;-77
2023/05/21 09:57:43;;;;;;;8.55;4.80;;;;;;;;;;5120293;27;20049;-78
2023/05/21 10:00:16;;;;;;;9.55;4.70;;;;;;;;;;5141708;27;20398;-78
2023/05/21 10:02:45;;;;;;;12.70;5.47;;;;;;;;;;5137031;27;20035;-76
2023/05/21 10:05:13;;;;;;;8.68;4.82;;;;;;;;;;5122600;27;20503;-79
2023/05/21 10:07:41;;;;;;;7.63;4.95;;;;;;;;;;5123211;27;20046;-77
2023/05/21 10:10:10;;;;;;;7.65;4.70;;;;;;;;;;5155489;27;20045;-76
2023/05/21 10:12:37;;;;;;;6.55;5.07;;;;;;;;;;5137085;27;20521;-76
2023/05/21 10:15:04;;;;;;;7.28;4.70;;;;;;;;;;5119792;27;20038;-79
2023/05/21 10:17:30;;;;;;;7.45;5.03;;;;;;;;;;5105456;27;20070;-78
2023/05/21 10:19:56;;;;;;;8.50;4.78;;;;;;;;;;5155199;27;20046;-78
2023/05/21 10:22:24;;;;;;;10.45;4.75;;;;;;;;;;5100808;27;20122;-77
2023/05/21 10:24:52;;;;;;;8.23;4.95;;;;;;;;;;5146937;27;20043;-77
2023/05/21 10:27:20;;;;;;;8.98;5.00;;;;;;;;;;5130819;27;20513;-77
2023/05/21 10:29:47;;;;;;;8.35;4.63;;;;;;;;;;5116101;27;20035;-77
2023/05/21 10:32:14;;;;;;;8.77;4.78;;;;;;;;;;5116446;27;20031;-76
2023/05/21 10:34:41;;;;;;;7.25;4.95;;;;;;;;;;5121200;27;20506;-77
2023/05/21 10:37:08;;;;;;;7.88;5.60;;;;;;;;;;5155159;27;20125;-77
2023/05/21 10:39:35;;;;;;;9.48;4.82;;;;;;;;;;5136792;27;20094;-75
2023/05/21 10:42:18;;;;;;;10.30;4.80;;;;;;;;;;5119338;27;20482;-76
2023/05/21 10:44:54;;;;;;;9.30;4.88;;;;;;;;;;5115508;27;20606;-78
2023/05/21 10:47:31;;;;;;;9.27;4.55;;;;;;;;;;5154745;27;20046;-79
2023/05/21 10:50:10;;;;;;;8.20;4.95;;;;;;;;;;5154615;27;20483;-79
2023/05/21 10:52:49;;;;;;;7.38;4.95;;;;;;;;;;5127478;27;20043;-81
2023/05/21 10:55:34;;;;;;;9.77;4.93;;;;;;;;;;5151143;27;20035;-80
2023/05/21 10:58:10;;;;;;;11.10;5.07;;;;;;;;;;5154457;27;20045;-80
2023/05/21 11:00:36;;;;;;;;;;;;;;;;;;5150380;27;20035;-80
2023/05/21 11:03:02;;;;;;;7.25;4.57;;;;;;;;;;5144972;27;20044;-80
2023/05/21 11:05:50;;;;;;;8.48;4.43;;;;;;;;;;5118106;27;20055;-80
2023/05/21 11:08:24;;;;;;;7.13;3.88;;;;;;;;;;5135856;27;20038;-81
2023/05/21 11:10:59;;;;;;;8.80;4.30;;;;;;;;;;5154029;27;20039;-81
2023/05/21 11:13:25;;;;;;;;;;;;;;;;;;5119337;27;20034;-80
2023/05/21 11:15:58;;;;;;;8.15;4.65;;;;;;;;;;5135628;27;19915;-79
2023/05/21 11:18:43;;;;;;;7.82;4.78;;;;;;;;;;5154788;27;20042;-78
2023/05/21 11:21:10;;;;;;;7.65;4.40;;;;;;;;;;5135641;27;20046;-80
2023/05/21 11:23:56;;;;;;;9.98;4.40;;;;;;;;;;5154431;27;20046;-80
2023/05/21 11:26:23;;;;;;;7.60;4.90;;;;;;;;;;5135765;27;20039;-79
2023/05/21 11:29:09;;;;;;;8.65;4.40;;;;;;;;;;5135663;27;20494;-80
2023/05/21 11:31:39;;;;;;;7.47;4.40;;;;;;;;;;5127944;28;20506;-83
2023/05/21 11:34:11;;;;;;;9.48;4.50;;;;;;;;;;5148032;27;20035;-81
2023/05/21 11:36:38;;;;;;;10.05;5.10;;;;;;;;;;5128842;28;20395;-78
2023/05/21 11:39:09;;;;;;;8.80;5.00;;;;;;;;;;5128823;27;20045;-74
2023/05/21 11:41:50;;;;;;;12.95;5.43;;;;;;;;;;5135436;27;20039;-75
2023/05/21 11:44:16;;;;;;;8.98;4.38;;;;;;;;;;5124971;28;20050;-76
2023/05/21 11:46:43;;;;;;;9.05;5.07;;;;;;;;;;5117138;27;20084;-76
2023/05/21 11:49:09;;;;;;;7.35;4.82;;;;;;;;;;5135643;27;20091;-79
2023/05/21 11:51:39;;;;;;;8.45;5.15;;;;;;;;;;5121166;28;20091;-79
2023/05/21 11:54:08;;;;;;;6.82;4.40;;;;;;;;;;5122282;27;20066;-75
2023/05/21 11:56:35;;;;;;;8.65;4.63;;;;;;;;;;5135700;27;20113;-80
2023/05/21 11:59:02;;;;;;;9.15;4.63;;;;;;;;;;5118041;27;20027;-75
2023/05/21 12:01:30;;;;;;;7.55;4.78;;;;;;;;;;5135812;27;20145;-82
2023/05/21 12:03:56;;;;;;;7.85;4.75;;;;;;;;;;5135215;27;20031;-81
2023/05/21 12:06:26;;;;;;;8.35;4.82;;;;;;;;;;5153993;27;20514;-81
2023/05/21 12:08:56;;;;;;;8.88;4.85;;;;;;;;;;5118069;27;20045;-74
2023/05/21 12:11:23;;;;;;;7.38;4.72;;;;;;;;;;5157615;27;20105;-76
2023/05/21 12:13:49;;;;;;;9.95;5.05;;;;;;;;;;5157597;27;20038;-80
2023/05/21 12:16:15;;;;;;;8.27;4.82;;;;;;;;;;5138989;27;20042;-76
2023/05/21 12:18:41;;;;;;;9.10;5.30;;;;;;;;;;5125426;27;20514;-77
2023/05/21 12:21:08;;;;;;;11.20;5.25;;;;;;;;;;5157046;27;20031;-76
2023/05/21 12:23:34;;;;;;;9.63;5.40;;;;;;;;;;5145628;27;20500;-75
2023/05/21 12:26:00;;;;;;;10.82;6.65;;;;;;;;;;5154732;27;20035;-81
2023/05/21 12:28:26;;;;;;;10.60;6.18;;;;;;;;;;5157699;27;20038;-78
2023/05/21 12:30:52;;;;;;;10.07;6.18;;;;;;;;;;5138887;27;20121;-76
2023/05/21 12:33:19;;;;;;;9.05;5.15;;;;;;;;;;5138555;27;20058;-77
2023/05/21 12:35:48;;;;;;;8.70;4.80;;;;;;;;;;5157369;27;20475;-79
2023/05/21 12:38:15;;;;;;;9.40;5.72;;;;;;;;;;5157064;27;20443;-76
2023/05/21 12:40:43;;;;;;;11.00;6.03;;;;;;;;;;5138703;27;20051;-76
2023/05/21 12:43:09;;;;;;;11.27;6.05;;;;;;;;;;5138896;27;20042;-75
2023/05/21 12:45:38;;;;;;;7.75;5.07;;;;;;;;;;5157158;27;20034;-76
2023/05/21 12:48:04;;;;;;;8.75;5.28;;;;;;;;;;5156916;27;20095;-74
2023/05/21 12:50:30;;;;;;;8.05;6.00;;;;;;;;;;5138421;27;20042;-75
2023/05/21 12:52:57;;;;;;;9.38;6.30;;;;;;;;;;5138775;27;20175;-75
2023/05/21 12:55:24;;;;;;;12.15;6.25;;;;;;;;;;5135123;27;20035;-77
2023/05/21 12:57:59;;;;;;;9.70;6.00;;;;;;;;;;5127871;27;20052;-75
2023/05/21 13:00:25;;;;;;;7.73;5.80;;;;;;;;;;5138374;27;20039;-75
2023/05/21 13:02:51;;;;;;;10.77;6.93;;;;;;;;;;5121235;27;20043;-74
2023/05/21 13:05:18;;;;;;;11.55;7.20;;;;;;;;;;5119317;27;20065;-75
2023/05/21 13:07:45;;;;;;;11.63;7.25;;;;;;;;;;5137759;27;20055;-76
2023/05/21 13:10:12;;;;;;;11.98;6.68;;;;;;;;;;5156582;27;20138;-78
2023/05/21 13:12:38;;;;;;;13.38;6.85;;;;;;;;;;5156661;27;20038;-74
2023/05/21 13:15:06;;;;;;;10.07;7.50;;;;;;;;;;5120899;27;20095;-74
2023/05/21 13:17:32;;;;;;;10.45;7.88;;;;;;;;;;5123488;27;20117;-76
2023/05/21 13:20:02;;;;;;;11.32;7.07;;;;;;;;;;5137952;27;20511;-76
2023/05/21 13:22:28;;;;;;;11.73;7.10;;;;;;;;;;5153929;27;20042;-75
2023/05/21 13:24:54;;;;;;;11.68;7.20;;;;;;;;;;5126324;27;20398;-75
2023/05/21 13:27:20;;;;;;;12.70;7.60;;;;;;;;;;5120234;27;20050;-77
2023/05/21 13:29:46;;;;;;;12.35;7.47;;;;;;;;;;5156330;27;20117;-76
2023/05/21 13:32:12;;;;;;;13.23;8.15;;;;;;;;;;5137626;27;20043;-74
2023/05/21 13:34:38;;;;;;;12.77;8.63;;;;;;;;;;5156308;27;20423;-76
2023/05/21 13:37:04;;;;;;;12.32;8.10;;;;;;;;;;5137927;27;20062;-75
2023/05/21 13:39:30;;;;;;;11.32;8.00;;;;;;;;;;5117251;27;20054;-76
2023/05/21 13:41:56;;;;;;;12.43;7.75;;;;;;;;;;5135440;27;20373;-76
2023/05/21 13:44:22;;;;;;;11.68;7.78;;;;;;;;;;5116550;27;20115;-76
2023/05/21 13:46:48;;;;;;;13.55;7.82;;;;;;;;;;5134040;27;20047;-75
2023/05/21 13:49:15;;;;;;;12.85;9.00;;;;;;;;;;5137157;27;20038;-79
2023/05/21 13:51:41;;;;;;;13.20;7.53;;;;;;;;;;5119923;27;20046;-76
2023/05/21 13:54:07;;;;;;;13.00;7.78;;;;;;;;;;5137280;27;20039;-76
2023/05/21 13:56:33;;;;;;;12.52;8.48;;;;;;;;;;5155418;27;20056;-75
2023/05/21 13:59:00;;;;;;;14.48;9.05;;;;;;;;;;5105782;27;20109;-76
2023/05/21 14:01:27;;;;;;;14.82;9.82;;;;;;;;;;5143565;27;20391;-74
2023/05/21 14:03:53;;;;;;;11.57;8.20;;;;;;;;;;5134445;27;20047;-75
2023/05/21 14:06:19;;;;;;;13.85;9.38;;;;;;;;;;5155194;27;20088;-73
2023/05/21 14:08:45;;;;;;;15.75;9.43;;;;;;;;;;5136832;27;20039;-74
2023/05/21 14:11:11;;;;;;;13.15;9.23;;;;;;;;;;5155448;27;20027;-77
2023/05/21 14:13:37;;;;;;;13.02;8.52;;;;;;;;;;5136830;27;20039;-82
2023/05/21 14:16:03;;;;;;;14.02;8.90;;;;;;;;;;5130778;27;20039;-76
2023/05/21 14:18:29;;;;;;;11.73;8.20;;;;;;;;;;5128140;27;20114;-75
2023/05/21 14:20:55;;;;;;;13.68;8.63;;;;;;;;;;5116062;27;20043;-76
2023/05/21 14:23:21;;;;;;;11.75;8.75;;;;;;;;;;5136633;27;20582;-73
2023/05/21 14:25:47;;;;;;;11.43;8.23;;;;;;;;;;5153033;27;20072;-75
2023/05/21 14:28:14;;;;;;;17.45;8.90;;;;;;;;;;5116374;27;20096;-75
2023/05/21 14:30:40;;;;;;;12.73;8.98;;;;;;;;;;5130326;27;20065;-75
2023/05/21 14:33:06;;;;;;;12.77;8.98;;;;;;;;;;5154806;27;20113;-79
2023/05/21 14:35:32;;;;;;;17.88;9.57;;;;;;;;;;5136372;27;20040;-77
2023/05/21 14:37:58;;;;;;;13.73;9.10;;;;;;;;;;5154870;27;20041;-76